OPA Logo
 

ASOS: KRDM
At:2018.12.11 0156 UTC
Wind:150° @ 4KT
Viz: 10 mile(s)
Sky: clear
Temp: 30.0 F (-1.1 C)
DewP: 24 F (-4 C):1
RH: 25.0 F (-3.9 C)
Baro: 25.0 F (-3.9 C)
ob: KRDM 110156Z 15004KT 10SM CLR M01/M04 A3023 RMK AO2 SLP259 T10111039
Apache-SSL Logo

Valid HTML 4.01!

Central Oregon OPA Chapter

Chapter Officers 2006:

President
Gary E. Miller
109 NW Wilmington Ave.
Bend OR 97701
541 382-8588
gem@rellim.com

Vice President:
Open

Secretary/Treasurer:
Don Wilfong
210 SE Cessna Dr
Bend OR 97702
541 389-1456
dwnw@bendbroadband.com


Web page by: gem@rellim.com